My webcam  My webcam


Besök vår andra vädersida:

Template documentation
and downloads

And another site



There is a communication problem. Go directly to the Meteoalarm site : www.meteoalarm.eu and check the Weather-warnings there .

Nearby METAR Reports

   
ESOE - Orebro (private), Sweden
Distance from station: SSV 25 km
Updated: 08-08-2022 15:50
Delvis molnigt  
Delvis molnigt  
   Vind: VSV 2.1 m/s
Vind: VSV 2.1 m/s
Temperature: 20°C
Daggpunkt: 13°C
Luftfuktighet: 64%
Barometer: 1023 hPa
Moln: Delvis molnigt
Visibility: Mer än 10 km
Cloud details: Delvis molnigt 3700 ft
ESOE 081350Z 24004KT 190V290 9999 SCT037 20/13 Q1023
ESSP - Norrkoping/Kungs, Sweden
Distance from station: SO 114 km
Updated: 08-08-2022 15:50
Nearby Showers, Mestadels molningt  
Nearby Showers, Mestadels molningt  
   Vind: Väst 2.6 m/s
Vind: Väst 2.6 m/s
Temperature: 20°C
Daggpunkt: 12°C
Luftfuktighet: 60%
Barometer: 1023 hPa
Moln: Mestadels molningt
Visibility: Mer än 10 km
Cloud details: Glesa moln 4000 ft,
Mestadels molningt 7500 ft
ESSP 081350Z 27005KT 230V310 9999 VCSH FEW040TCU BKN075 20/12 Q1023
ESSB - Stockholm/Bromma, Sweden
Distance from station: O 156 km
Updated: 08-08-2022 15:50
Klart  
Klart  
   Vind: Väst 2.6 m/s
Vind: Väst 2.6 m/s
Temperature: 22°C
Daggpunkt: 6°C
Luftfuktighet: 36%
Barometer: 1023 hPa
Visibility: Mer än 10 km
Cloud details: Klart
ESSB 081350Z 28005KT 240V310 CAVOK 22/06 Q1023
ESSV - Visby Airport, Sweden
Distance from station: SO 269 km
Updated: 08-08-2022 15:50
Klart  
Klart  
   Vind: VNV 3.6 m/s
Vind: VNV 3.6 m/s
Temperature: 18°C
Daggpunkt: 12°C
Luftfuktighet: 68%
Barometer: 1024 hPa
Visibility: Mer än 10 km
Cloud details: Klart
ESSV 081350Z 29007KT 270V330 CAVOK 18/12 Q1024
ESNZ - Ostersund/Froson, Sweden
Distance from station: SSV 1 km
Updated: 08-08-2022 15:50
Klart  
Klart  
   Vind: Väst 2.1 m/s
Vind: Väst 2.1 m/s
Temperature: 18°C
Daggpunkt: 7°C
Luftfuktighet: 49%
Barometer: 1022 hPa
Visibility: Mer än 10 km
Cloud details: Klart
ESNZ 081350Z 28004KT 250V320 CAVOK 18/07 Q1022
ESPA - Kallax/Lulea (af, Sweden
Distance from station: SSO 7 km
Updated: 08-08-2022 15:50
Klart  
Klart  
   Vind: Syd 4.6 m/s
Vind: Syd 4.6 m/s
Temperature: 18°C
Daggpunkt: 8°C
Luftfuktighet: 52%
Barometer: 1021 hPa
Visibility: Mer än 10 km
Cloud details: Klart
ESPA 081350Z 19009KT CAVOK 18/08 Q1021

Script developed by  Saratoga-weather.org Adapted for the template by  Weerstation Leuven